sensor_id;sensor_type;location;lat;lon;timestamp;P1;durP1;ratioP1;P2;durP2;ratioP2
20557;SDS011;10437;48.156;11.530;2024-02-26T00:01:10;5.17;;;2.37;;
20557;SDS011;10437;48.156;11.530;2024-02-26T00:03:39;4.03;;;2.53;;
20557;SDS011;10437;48.156;11.530;2024-02-26T00:06:07;2.53;;;1.93;;
20557;SDS011;10437;48.156;11.530;2024-02-26T00:08:34;5.27;;;2.33;;
20557;SDS011;10437;48.156;11.530;2024-02-26T00:11:01;4.73;;;2.20;;
20557;SDS011;10437;48.156;11.530;2024-02-26T00:13:28;4.30;;;2.00;;
20557;SDS011;10437;48.156;11.530;2024-02-26T00:15:56;3.87;;;1.93;;
20557;SDS011;10437;48.156;11.530;2024-02-26T00:18:23;5.27;;;2.13;;
20557;SDS011;10437;48.156;11.530;2024-02-26T00:20:51;2.27;;;1.73;;
20557;SDS011;10437;48.156;11.530;2024-02-26T00:23:19;4.07;;;1.77;;
20557;SDS011;10437;48.156;11.530;2024-02-26T00:25:46;4.50;;;1.97;;
20557;SDS011;10437;48.156;11.530;2024-02-26T00:28:13;3.40;;;2.00;;
20557;SDS011;10437;48.156;11.530;2024-02-26T00:30:40;3.60;;;2.13;;
20557;SDS011;10437;48.156;11.530;2024-02-26T00:33:08;3.07;;;1.80;;
20557;SDS011;10437;48.156;11.530;2024-02-26T00:35:35;2.87;;;1.70;;
20557;SDS011;10437;48.156;11.530;2024-02-26T00:38:03;5.50;;;1.80;;
20557;SDS011;10437;48.156;11.530;2024-02-26T00:40:31;3.33;;;1.67;;
20557;SDS011;10437;48.156;11.530;2024-02-26T00:42:58;3.90;;;1.80;;
20557;SDS011;10437;48.156;11.530;2024-02-26T00:45:25;2.77;;;1.50;;
20557;SDS011;10437;48.156;11.530;2024-02-26T00:47:52;4.03;;;1.70;;
20557;SDS011;10437;48.156;11.530;2024-02-26T00:50:20;5.50;;;2.10;;
20557;SDS011;10437;48.156;11.530;2024-02-26T00:52:48;2.77;;;1.57;;
20557;SDS011;10437;48.156;11.530;2024-02-26T00:55:16;2.80;;;1.67;;
20557;SDS011;10437;48.156;11.530;2024-02-26T00:57:43;4.40;;;2.00;;
20557;SDS011;10437;48.156;11.530;2024-02-26T01:00:11;3.33;;;1.80;;
20557;SDS011;10437;48.156;11.530;2024-02-26T01:02:39;3.43;;;1.67;;
20557;SDS011;10437;48.156;11.530;2024-02-26T01:05:07;3.23;;;1.73;;
20557;SDS011;10437;48.156;11.530;2024-02-26T01:07:34;3.33;;;1.70;;
20557;SDS011;10437;48.156;11.530;2024-02-26T01:10:02;3.20;;;1.83;;
20557;SDS011;10437;48.156;11.530;2024-02-26T01:12:29;3.70;;;1.70;;
20557;SDS011;10437;48.156;11.530;2024-02-26T01:14:56;2.83;;;1.50;;
20557;SDS011;10437;48.156;11.530;2024-02-26T01:17:23;2.50;;;1.60;;
20557;SDS011;10437;48.156;11.530;2024-02-26T01:19:51;5.13;;;1.63;;
20557;SDS011;10437;48.156;11.530;2024-02-26T01:22:18;2.87;;;1.73;;
20557;SDS011;10437;48.156;11.530;2024-02-26T01:24:46;3.20;;;1.80;;
20557;SDS011;10437;48.156;11.530;2024-02-26T01:27:13;3.80;;;1.53;;
20557;SDS011;10437;48.156;11.530;2024-02-26T01:29:42;3.63;;;1.90;;
20557;SDS011;10437;48.156;11.530;2024-02-26T01:32:09;2.63;;;1.60;;
20557;SDS011;10437;48.156;11.530;2024-02-26T01:34:36;3.87;;;1.57;;
20557;SDS011;10437;48.156;11.530;2024-02-26T01:37:04;4.90;;;2.10;;
20557;SDS011;10437;48.156;11.530;2024-02-26T01:39:31;3.20;;;1.50;;
20557;SDS011;10437;48.156;11.530;2024-02-26T01:41:58;5.23;;;1.97;;
20557;SDS011;10437;48.156;11.530;2024-02-26T01:44:26;3.43;;;1.80;;
20557;SDS011;10437;48.156;11.530;2024-02-26T01:46:54;4.30;;;2.07;;
20557;SDS011;10437;48.156;11.530;2024-02-26T01:49:22;3.60;;;1.90;;
20557;SDS011;10437;48.156;11.530;2024-02-26T01:51:49;3.67;;;1.83;;
20557;SDS011;10437;48.156;11.530;2024-02-26T01:54:17;3.53;;;1.90;;
20557;SDS011;10437;48.156;11.530;2024-02-26T01:56:44;4.53;;;2.10;;
20557;SDS011;10437;48.156;11.530;2024-02-26T01:59:11;2.60;;;1.70;;
20557;SDS011;10437;48.156;11.530;2024-02-26T02:01:38;4.00;;;1.90;;
20557;SDS011;10437;48.156;11.530;2024-02-26T02:04:09;2.63;;;1.40;;
20557;SDS011;10437;48.156;11.530;2024-02-26T02:06:36;3.77;;;1.87;;
20557;SDS011;10437;48.156;11.530;2024-02-26T02:09:04;3.00;;;1.73;;
20557;SDS011;10437;48.156;11.530;2024-02-26T02:11:32;4.20;;;1.43;;
20557;SDS011;10437;48.156;11.530;2024-02-26T02:13:59;3.53;;;1.80;;
20557;SDS011;10437;48.156;11.530;2024-02-26T02:16:27;3.17;;;1.80;;
20557;SDS011;10437;48.156;11.530;2024-02-26T02:18:54;2.53;;;1.70;;
20557;SDS011;10437;48.156;11.530;2024-02-26T02:21:22;3.27;;;1.50;;
20557;SDS011;10437;48.156;11.530;2024-02-26T02:23:49;4.80;;;2.00;;
20557;SDS011;10437;48.156;11.530;2024-02-26T02:26:17;2.97;;;1.60;;
20557;SDS011;10437;48.156;11.530;2024-02-26T02:28:44;3.43;;;1.60;;
20557;SDS011;10437;48.156;11.530;2024-02-26T02:31:12;3.13;;;1.70;;
20557;SDS011;10437;48.156;11.530;2024-02-26T02:33:39;3.03;;;1.60;;
20557;SDS011;10437;48.156;11.530;2024-02-26T02:36:06;3.57;;;1.77;;
20557;SDS011;10437;48.156;11.530;2024-02-26T02:38:36;3.33;;;1.70;;
20557;SDS011;10437;48.156;11.530;2024-02-26T02:41:03;2.77;;;1.60;;
20557;SDS011;10437;48.156;11.530;2024-02-26T02:43:31;1.90;;;1.23;;
20557;SDS011;10437;48.156;11.530;2024-02-26T02:45:58;2.57;;;1.50;;
20557;SDS011;10437;48.156;11.530;2024-02-26T02:48:25;2.60;;;1.57;;
20557;SDS011;10437;48.156;11.530;2024-02-26T02:50:53;2.13;;;1.53;;
20557;SDS011;10437;48.156;11.530;2024-02-26T02:53:20;3.90;;;1.57;;
20557;SDS011;10437;48.156;11.530;2024-02-26T02:55:48;3.83;;;1.63;;
20557;SDS011;10437;48.156;11.530;2024-02-26T02:58:15;2.83;;;1.60;;
20557;SDS011;10437;48.156;11.530;2024-02-26T03:00:42;3.30;;;1.77;;
20557;SDS011;10437;48.156;11.530;2024-02-26T03:03:10;2.03;;;1.40;;
20557;SDS011;10437;48.156;11.530;2024-02-26T03:05:37;2.33;;;1.30;;
20557;SDS011;10437;48.156;11.530;2024-02-26T03:08:04;3.23;;;1.53;;
20557;SDS011;10437;48.156;11.530;2024-02-26T03:10:31;2.50;;;1.50;;
20557;SDS011;10437;48.156;11.530;2024-02-26T03:13:00;2.33;;;1.30;;
20557;SDS011;10437;48.156;11.530;2024-02-26T03:15:27;2.93;;;1.70;;
20557;SDS011;10437;48.156;11.530;2024-02-26T03:17:55;3.27;;;1.43;;
20557;SDS011;10437;48.156;11.530;2024-02-26T03:20:22;2.20;;;1.33;;
20557;SDS011;10437;48.156;11.530;2024-02-26T03:22:49;3.63;;;1.47;;
20557;SDS011;10437;48.156;11.530;2024-02-26T03:25:16;2.97;;;1.60;;
20557;SDS011;10437;48.156;11.530;2024-02-26T03:27:43;3.73;;;1.67;;
20557;SDS011;10437;48.156;11.530;2024-02-26T03:30:12;2.37;;;1.37;;
20557;SDS011;10437;48.156;11.530;2024-02-26T03:32:40;2.23;;;1.40;;
20557;SDS011;10437;48.156;11.530;2024-02-26T03:35:07;4.17;;;1.50;;
20557;SDS011;10437;48.156;11.530;2024-02-26T03:37:35;3.07;;;1.50;;
20557;SDS011;10437;48.156;11.530;2024-02-26T03:40:02;2.17;;;1.50;;
20557;SDS011;10437;48.156;11.530;2024-02-26T03:42:30;3.47;;;1.40;;
20557;SDS011;10437;48.156;11.530;2024-02-26T03:44:57;3.10;;;1.70;;
20557;SDS011;10437;48.156;11.530;2024-02-26T03:47:25;3.00;;;1.50;;
20557;SDS011;10437;48.156;11.530;2024-02-26T03:49:52;3.53;;;1.50;;
20557;SDS011;10437;48.156;11.530;2024-02-26T03:52:19;3.13;;;1.80;;
20557;SDS011;10437;48.156;11.530;2024-02-26T03:54:47;3.37;;;1.50;;
20557;SDS011;10437;48.156;11.530;2024-02-26T03:57:14;2.77;;;1.33;;
20557;SDS011;10437;48.156;11.530;2024-02-26T03:59:41;2.53;;;1.50;;
20557;SDS011;10437;48.156;11.530;2024-02-26T04:02:08;4.97;;;1.53;;
20557;SDS011;10437;48.156;11.530;2024-02-26T04:04:37;1.93;;;1.40;;
20557;SDS011;10437;48.156;11.530;2024-02-26T04:07:06;3.13;;;1.67;;
20557;SDS011;10437;48.156;11.530;2024-02-26T04:09:34;2.60;;;1.50;;
20557;SDS011;10437;48.156;11.530;2024-02-26T04:12:01;2.23;;;1.37;;
20557;SDS011;10437;48.156;11.530;2024-02-26T04:14:28;2.63;;;1.40;;
20557;SDS011;10437;48.156;11.530;2024-02-26T04:16:55;1.47;;;1.27;;
20557;SDS011;10437;48.156;11.530;2024-02-26T04:19:23;5.93;;;1.40;;
20557;SDS011;10437;48.156;11.530;2024-02-26T04:21:51;2.90;;;1.40;;
20557;SDS011;10437;48.156;11.530;2024-02-26T04:24:18;2.90;;;1.50;;
20557;SDS011;10437;48.156;11.530;2024-02-26T04:26:46;4.37;;;1.30;;
20557;SDS011;10437;48.156;11.530;2024-02-26T04:29:15;3.93;;;1.70;;
20557;SDS011;10437;48.156;11.530;2024-02-26T04:31:42;2.73;;;1.40;;
20557;SDS011;10437;48.156;11.530;2024-02-26T04:34:11;2.80;;;1.40;;
20557;SDS011;10437;48.156;11.530;2024-02-26T04:36:38;1.60;;;1.03;;
20557;SDS011;10437;48.156;11.530;2024-02-26T04:39:06;3.10;;;1.20;;
20557;SDS011;10437;48.156;11.530;2024-02-26T04:41:33;3.53;;;1.50;;
20557;SDS011;10437;48.156;11.530;2024-02-26T04:44:01;3.77;;;1.40;;
20557;SDS011;10437;48.156;11.530;2024-02-26T04:46:28;2.17;;;1.23;;
20557;SDS011;10437;48.156;11.530;2024-02-26T04:48:55;2.30;;;1.50;;
20557;SDS011;10437;48.156;11.530;2024-02-26T04:51:23;2.17;;;1.37;;
20557;SDS011;10437;48.156;11.530;2024-02-26T04:53:50;3.77;;;1.40;;
20557;SDS011;10437;48.156;11.530;2024-02-26T04:56:20;2.70;;;1.20;;
20557;SDS011;10437;48.156;11.530;2024-02-26T04:58:47;3.77;;;1.40;;
20557;SDS011;10437;48.156;11.530;2024-02-26T05:01:14;4.37;;;1.33;;
20557;SDS011;10437;48.156;11.530;2024-02-26T05:03:42;1.80;;;1.07;;
20557;SDS011;10437;48.156;11.530;2024-02-26T05:06:09;2.77;;;1.30;;
20557;SDS011;10437;48.156;11.530;2024-02-26T05:08:37;3.70;;;1.63;;
20557;SDS011;10437;48.156;11.530;2024-02-26T05:11:04;5.13;;;1.70;;
20557;SDS011;10437;48.156;11.530;2024-02-26T05:13:33;6.57;;;1.40;;
20557;SDS011;10437;48.156;11.530;2024-02-26T05:16:00;9.93;;;1.43;;
20557;SDS011;10437;48.156;11.530;2024-02-26T05:18:27;2.03;;;1.50;;
20557;SDS011;10437;48.156;11.530;2024-02-26T05:20:55;6.30;;;1.70;;
20557;SDS011;10437;48.156;11.530;2024-02-26T05:23:22;3.73;;;1.37;;
20557;SDS011;10437;48.156;11.530;2024-02-26T05:25:49;2.93;;;1.53;;
20557;SDS011;10437;48.156;11.530;2024-02-26T05:28:16;7.30;;;1.50;;
20557;SDS011;10437;48.156;11.530;2024-02-26T05:30:47;3.43;;;1.40;;
20557;SDS011;10437;48.156;11.530;2024-02-26T05:33:15;4.20;;;1.43;;
20557;SDS011;10437;48.156;11.530;2024-02-26T05:35:42;1.97;;;1.50;;
20557;SDS011;10437;48.156;11.530;2024-02-26T05:38:09;4.20;;;1.73;;
20557;SDS011;10437;48.156;11.530;2024-02-26T05:40:37;3.07;;;1.70;;
20557;SDS011;10437;48.156;11.530;2024-02-26T05:43:04;3.07;;;1.47;;
20557;SDS011;10437;48.156;11.530;2024-02-26T05:45:31;4.87;;;1.70;;
20557;SDS011;10437;48.156;11.530;2024-02-26T05:48:00;3.63;;;1.90;;
20557;SDS011;10437;48.156;11.530;2024-02-26T05:50:28;3.60;;;1.50;;
20557;SDS011;10437;48.156;11.530;2024-02-26T05:52:55;4.17;;;1.50;;
20557;SDS011;10437;48.156;11.530;2024-02-26T05:55:22;2.53;;;1.30;;
20557;SDS011;10437;48.156;11.530;2024-02-26T05:57:50;7.67;;;1.60;;
20557;SDS011;10437;48.156;11.530;2024-02-26T06:00:17;2.80;;;1.40;;
20557;SDS011;10437;48.156;11.530;2024-02-26T06:02:44;6.63;;;1.80;;
20557;SDS011;10437;48.156;11.530;2024-02-26T06:05:13;4.33;;;1.73;;
20557;SDS011;10437;48.156;11.530;2024-02-26T06:07:40;2.83;;;1.43;;
20557;SDS011;10437;48.156;11.530;2024-02-26T06:10:07;3.63;;;1.57;;
20557;SDS011;10437;48.156;11.530;2024-02-26T06:12:35;3.23;;;1.70;;
20557;SDS011;10437;48.156;11.530;2024-02-26T06:15:02;5.70;;;1.50;;
20557;SDS011;10437;48.156;11.530;2024-02-26T06:17:29;12.43;;;1.80;;
20557;SDS011;10437;48.156;11.530;2024-02-26T06:19:57;4.90;;;1.60;;
20557;SDS011;10437;48.156;11.530;2024-02-26T06:22:26;2.77;;;1.30;;
20557;SDS011;10437;48.156;11.530;2024-02-26T06:24:54;6.63;;;1.90;;
20557;SDS011;10437;48.156;11.530;2024-02-26T06:27:21;3.23;;;2.03;;
20557;SDS011;10437;48.156;11.530;2024-02-26T06:29:49;4.53;;;1.80;;
20557;SDS011;10437;48.156;11.530;2024-02-26T06:32:16;4.97;;;1.57;;
20557;SDS011;10437;48.156;11.530;2024-02-26T06:34:43;5.53;;;1.57;;
20557;SDS011;10437;48.156;11.530;2024-02-26T06:37:10;4.13;;;1.77;;
20557;SDS011;10437;48.156;11.530;2024-02-26T06:39:39;7.50;;;1.90;;
20557;SDS011;10437;48.156;11.530;2024-02-26T06:42:07;3.00;;;1.77;;
20557;SDS011;10437;48.156;11.530;2024-02-26T06:44:34;8.67;;;1.73;;
20557;SDS011;10437;48.156;11.530;2024-02-26T06:47:01;8.30;;;2.20;;
20557;SDS011;10437;48.156;11.530;2024-02-26T06:49:29;4.23;;;1.60;;
20557;SDS011;10437;48.156;11.530;2024-02-26T06:51:56;5.83;;;1.77;;
20557;SDS011;10437;48.156;11.530;2024-02-26T06:54:23;5.67;;;1.93;;
20557;SDS011;10437;48.156;11.530;2024-02-26T06:56:52;6.00;;;1.87;;
20557;SDS011;10437;48.156;11.530;2024-02-26T06:59:19;5.53;;;1.60;;
20557;SDS011;10437;48.156;11.530;2024-02-26T07:01:47;6.10;;;2.07;;
20557;SDS011;10437;48.156;11.530;2024-02-26T07:04:14;5.30;;;1.83;;
20557;SDS011;10437;48.156;11.530;2024-02-26T07:06:41;5.43;;;1.87;;
20557;SDS011;10437;48.156;11.530;2024-02-26T07:09:09;11.90;;;2.10;;
20557;SDS011;10437;48.156;11.530;2024-02-26T07:11:37;8.50;;;1.63;;
20557;SDS011;10437;48.156;11.530;2024-02-26T07:14:08;11.30;;;2.23;;
20557;SDS011;10437;48.156;11.530;2024-02-26T07:16:35;4.87;;;1.90;;
20557;SDS011;10437;48.156;11.530;2024-02-26T07:19:02;7.00;;;1.97;;
20557;SDS011;10437;48.156;11.530;2024-02-26T07:21:30;4.50;;;1.93;;
20557;SDS011;10437;48.156;11.530;2024-02-26T07:23:57;6.60;;;2.00;;
20557;SDS011;10437;48.156;11.530;2024-02-26T07:26:24;6.33;;;2.20;;
20557;SDS011;10437;48.156;11.530;2024-02-26T07:28:52;6.33;;;2.50;;
20557;SDS011;10437;48.156;11.530;2024-02-26T07:31:20;7.13;;;2.40;;
20557;SDS011;10437;48.156;11.530;2024-02-26T07:33:47;9.63;;;2.67;;
20557;SDS011;10437;48.156;11.530;2024-02-26T07:36:14;5.33;;;2.27;;
20557;SDS011;10437;48.156;11.530;2024-02-26T07:38:42;6.63;;;2.47;;
20557;SDS011;10437;48.156;11.530;2024-02-26T07:41:09;12.13;;;2.37;;
20557;SDS011;10437;48.156;11.530;2024-02-26T07:43:37;6.23;;;2.17;;
20557;SDS011;10437;48.156;11.530;2024-02-26T07:46:04;5.57;;;2.00;;
20557;SDS011;10437;48.156;11.530;2024-02-26T07:48:33;8.53;;;2.30;;
20557;SDS011;10437;48.156;11.530;2024-02-26T07:51:00;8.20;;;2.63;;
20557;SDS011;10437;48.156;11.530;2024-02-26T07:53:28;12.50;;;2.10;;
20557;SDS011;10437;48.156;11.530;2024-02-26T07:55:55;5.10;;;1.90;;
20557;SDS011;10437;48.156;11.530;2024-02-26T07:58:22;13.37;;;1.97;;
20557;SDS011;10437;48.156;11.530;2024-02-26T08:00:50;6.73;;;2.40;;
20557;SDS011;10437;48.156;11.530;2024-02-26T08:03:17;6.60;;;2.23;;
20557;SDS011;10437;48.156;11.530;2024-02-26T08:05:46;8.57;;;2.60;;
20557;SDS011;10437;48.156;11.530;2024-02-26T08:08:13;5.90;;;2.17;;
20557;SDS011;10437;48.156;11.530;2024-02-26T08:10:40;19.23;;;2.93;;
20557;SDS011;10437;48.156;11.530;2024-02-26T08:13:07;12.57;;;2.90;;
20557;SDS011;10437;48.156;11.530;2024-02-26T08:15:35;21.57;;;7.83;;
20557;SDS011;10437;48.156;11.530;2024-02-26T08:18:02;10.17;;;4.13;;
20557;SDS011;10437;48.156;11.530;2024-02-26T08:20:30;10.33;;;2.40;;
20557;SDS011;10437;48.156;11.530;2024-02-26T08:22:59;4.43;;;2.20;;
20557;SDS011;10437;48.156;11.530;2024-02-26T08:25:26;7.43;;;2.37;;
20557;SDS011;10437;48.156;11.530;2024-02-26T08:27:53;8.57;;;2.33;;
20557;SDS011;10437;48.156;11.530;2024-02-26T08:30:20;22.93;;;2.30;;
20557;SDS011;10437;48.156;11.530;2024-02-26T08:32:47;6.33;;;2.10;;
20557;SDS011;10437;48.156;11.530;2024-02-26T08:35:15;6.77;;;2.20;;
20557;SDS011;10437;48.156;11.530;2024-02-26T08:37:43;8.63;;;2.40;;
20557;SDS011;10437;48.156;11.530;2024-02-26T08:40:12;6.70;;;2.60;;
20557;SDS011;10437;48.156;11.530;2024-02-26T08:42:40;5.63;;;2.47;;
20557;SDS011;10437;48.156;11.530;2024-02-26T08:45:07;7.43;;;2.53;;
20557;SDS011;10437;48.156;11.530;2024-02-26T08:47:34;6.30;;;2.40;;
20557;SDS011;10437;48.156;11.530;2024-02-26T08:50:02;7.10;;;2.30;;
20557;SDS011;10437;48.156;11.530;2024-02-26T08:52:29;6.57;;;2.43;;
20557;SDS011;10437;48.156;11.530;2024-02-26T08:54:56;7.70;;;2.10;;
20557;SDS011;10437;48.156;11.530;2024-02-26T08:57:25;10.70;;;2.33;;
20557;SDS011;10437;48.156;11.530;2024-02-26T08:59:53;5.70;;;2.87;;
20557;SDS011;10437;48.156;11.530;2024-02-26T09:02:20;7.60;;;2.87;;
20557;SDS011;10437;48.156;11.530;2024-02-26T09:04:47;9.43;;;2.47;;
20557;SDS011;10437;48.156;11.530;2024-02-26T09:07:16;13.13;;;3.00;;
20557;SDS011;10437;48.156;11.530;2024-02-26T09:09:43;10.17;;;2.40;;
20557;SDS011;10437;48.156;11.530;2024-02-26T09:12:10;8.40;;;2.60;;
20557;SDS011;10437;48.156;11.530;2024-02-26T09:14:39;11.43;;;2.67;;
20557;SDS011;10437;48.156;11.530;2024-02-26T09:17:06;7.93;;;2.57;;
20557;SDS011;10437;48.156;11.530;2024-02-26T09:19:33;10.77;;;2.30;;
20557;SDS011;10437;48.156;11.530;2024-02-26T09:22:00;3.90;;;2.10;;
20557;SDS011;10437;48.156;11.530;2024-02-26T09:24:27;6.40;;;2.23;;
20557;SDS011;10437;48.156;11.530;2024-02-26T09:26:55;8.17;;;2.60;;
20557;SDS011;10437;48.156;11.530;2024-02-26T09:29:22;5.60;;;2.33;;
20557;SDS011;10437;48.156;11.530;2024-02-26T09:31:53;7.20;;;2.73;;
20557;SDS011;10437;48.156;11.530;2024-02-26T09:34:19;6.30;;;2.27;;
20557;SDS011;10437;48.156;11.530;2024-02-26T09:36:47;3.43;;;2.03;;
20557;SDS011;10437;48.156;11.530;2024-02-26T09:39:14;4.80;;;2.00;;
20557;SDS011;10437;48.156;11.530;2024-02-26T09:41:46;9.10;;;2.33;;
20557;SDS011;10437;48.156;11.530;2024-02-26T09:44:14;5.17;;;1.87;;
20557;SDS011;10437;48.156;11.530;2024-02-26T09:46:44;4.63;;;1.80;;
20557;SDS011;10437;48.156;11.530;2024-02-26T09:49:13;3.83;;;1.60;;
20557;SDS011;10437;48.156;11.530;2024-02-26T09:51:42;5.47;;;1.80;;
20557;SDS011;10437;48.156;11.530;2024-02-26T09:54:09;2.30;;;1.30;;
20557;SDS011;10437;48.156;11.530;2024-02-26T09:56:37;7.32;;;1.48;;
20557;SDS011;10437;48.156;11.530;2024-02-26T09:59:07;7.05;;;1.70;;
20557;SDS011;10437;48.156;11.530;2024-02-26T10:01:37;5.97;;;1.60;;
20557;SDS011;10437;48.156;11.530;2024-02-26T10:04:05;9.70;;;2.10;;
20557;SDS011;10437;48.156;11.530;2024-02-26T10:06:34;2.42;;;1.40;;
20557;SDS011;10437;48.156;11.530;2024-02-26T10:09:03;5.40;;;1.55;;
20557;SDS011;10437;48.156;11.530;2024-02-26T10:11:32;5.45;;;1.50;;
20557;SDS011;10437;48.156;11.530;2024-02-26T10:13:59;2.92;;;1.42;;
20557;SDS011;10437;48.156;11.530;2024-02-26T10:16:26;4.80;;;2.20;;
20557;SDS011;10437;48.156;11.530;2024-02-26T10:18:54;3.67;;;1.30;;
20557;SDS011;10437;48.156;11.530;2024-02-26T10:21:22;2.50;;;1.27;;
20557;SDS011;10437;48.156;11.530;2024-02-26T10:23:50;2.97;;;1.27;;
20557;SDS011;10437;48.156;11.530;2024-02-26T10:26:18;4.05;;;1.55;;
20557;SDS011;10437;48.156;11.530;2024-02-26T10:28:45;2.28;;;1.35;;
20557;SDS011;10437;48.156;11.530;2024-02-26T10:31:13;3.28;;;1.30;;
20557;SDS011;10437;48.156;11.530;2024-02-26T10:33:41;4.93;;;1.83;;
20557;SDS011;10437;48.156;11.530;2024-02-26T10:36:09;2.15;;;1.30;;
20557;SDS011;10437;48.156;11.530;2024-02-26T10:38:37;3.65;;;1.27;;
20557;SDS011;10437;48.156;11.530;2024-02-26T10:41:06;7.40;;;1.40;;
20557;SDS011;10437;48.156;11.530;2024-02-26T10:43:34;7.35;;;1.30;;
20557;SDS011;10437;48.156;11.530;2024-02-26T10:46:01;2.88;;;1.27;;
20557;SDS011;10437;48.156;11.530;2024-02-26T10:48:29;3.40;;;1.27;;
20557;SDS011;10437;48.156;11.530;2024-02-26T10:50:56;2.65;;;1.08;;
20557;SDS011;10437;48.156;11.530;2024-02-26T10:53:25;3.55;;;1.20;;
20557;SDS011;10437;48.156;11.530;2024-02-26T10:55:57;3.00;;;1.45;;
20557;SDS011;10437;48.156;11.530;2024-02-26T10:58:26;3.83;;;1.08;;
20557;SDS011;10437;48.156;11.530;2024-02-26T11:00:54;5.95;;;1.23;;
20557;SDS011;10437;48.156;11.530;2024-02-26T11:03:23;4.32;;;1.50;;
20557;SDS011;10437;48.156;11.530;2024-02-26T11:05:51;2.10;;;0.80;;
20557;SDS011;10437;48.156;11.530;2024-02-26T11:08:19;3.42;;;1.05;;
20557;SDS011;10437;48.156;11.530;2024-02-26T11:10:47;3.25;;;0.93;;
20557;SDS011;10437;48.156;11.530;2024-02-26T11:13:17;3.00;;;1.02;;
20557;SDS011;10437;48.156;11.530;2024-02-26T11:15:46;3.33;;;1.00;;
20557;SDS011;10437;48.156;11.530;2024-02-26T11:18:14;1.33;;;0.82;;
20557;SDS011;10437;48.156;11.530;2024-02-26T11:20:42;2.42;;;0.90;;
20557;SDS011;10437;48.156;11.530;2024-02-26T11:23:12;2.38;;;0.90;;
20557;SDS011;10437;48.156;11.530;2024-02-26T11:25:40;4.28;;;0.90;;
20557;SDS011;10437;48.156;11.530;2024-02-26T11:28:08;5.40;;;0.90;;
20557;SDS011;10437;48.156;11.530;2024-02-26T11:30:38;2.08;;;0.75;;
20557;SDS011;10437;48.156;11.530;2024-02-26T11:33:10;2.58;;;0.90;;
20557;SDS011;10437;48.156;11.530;2024-02-26T11:35:39;2.58;;;1.00;;
20557;SDS011;10437;48.156;11.530;2024-02-26T11:38:06;3.05;;;0.95;;
20557;SDS011;10437;48.156;11.530;2024-02-26T11:40:37;2.80;;;1.05;;
20557;SDS011;10437;48.156;11.530;2024-02-26T11:43:06;6.70;;;1.38;;
20557;SDS011;10437;48.156;11.530;2024-02-26T11:45:49;2.10;;;0.93;;
20557;SDS011;10437;48.156;11.530;2024-02-26T11:48:22;3.70;;;1.63;;
20557;SDS011;10437;48.156;11.530;2024-02-26T11:50:50;3.33;;;1.02;;
20557;SDS011;10437;48.156;11.530;2024-02-26T11:53:24;2.97;;;0.98;;
20557;SDS011;10437;48.156;11.530;2024-02-26T11:58:48;2.00;;;1.00;;
20557;SDS011;10437;48.156;11.530;2024-02-26T12:04:13;2.67;;;1.08;;
20557;SDS011;10437;48.156;11.530;2024-02-26T12:06:42;2.42;;;0.80;;
20557;SDS011;10437;48.156;11.530;2024-02-26T12:09:10;5.38;;;0.95;;
20557;SDS011;10437;48.156;11.530;2024-02-26T12:11:38;1.08;;;0.68;;
20557;SDS011;10437;48.156;11.530;2024-02-26T12:14:05;4.00;;;0.88;;
20557;SDS011;10437;48.156;11.530;2024-02-26T12:16:34;5.55;;;0.90;;
20557;SDS011;10437;48.156;11.530;2024-02-26T12:19:03;1.75;;;0.73;;
20557;SDS011;10437;48.156;11.530;2024-02-26T12:21:33;2.67;;;1.00;;
20557;SDS011;10437;48.156;11.530;2024-02-26T12:24:09;1.23;;;0.88;;
20557;SDS011;10437;48.156;11.530;2024-02-26T12:26:37;1.98;;;0.93;;
20557;SDS011;10437;48.156;11.530;2024-02-26T12:29:05;1.48;;;0.80;;
20557;SDS011;10437;48.156;11.530;2024-02-26T12:31:32;2.92;;;0.70;;
20557;SDS011;10437;48.156;11.530;2024-02-26T12:34:02;1.73;;;0.68;;
20557;SDS011;10437;48.156;11.530;2024-02-26T12:36:29;2.17;;;0.60;;
20557;SDS011;10437;48.156;11.530;2024-02-26T12:38:59;0.90;;;0.57;;
20557;SDS011;10437;48.156;11.530;2024-02-26T12:41:27;2.47;;;0.80;;
20557;SDS011;10437;48.156;11.530;2024-02-26T12:43:55;3.13;;;0.77;;
20557;SDS011;10437;48.156;11.530;2024-02-26T12:46:23;1.85;;;0.90;;
20557;SDS011;10437;48.156;11.530;2024-02-26T12:48:50;6.38;;;1.10;;
20557;SDS011;10437;48.156;11.530;2024-02-26T12:51:19;4.80;;;1.00;;
20557;SDS011;10437;48.156;11.530;2024-02-26T12:53:46;2.72;;;1.00;;
20557;SDS011;10437;48.156;11.530;2024-02-26T12:56:16;1.95;;;0.85;;
20557;SDS011;10437;48.156;11.530;2024-02-26T12:58:44;5.22;;;1.02;;
20557;SDS011;10437;48.156;11.530;2024-02-26T13:01:14;2.22;;;1.13;;
20557;SDS011;10437;48.156;11.530;2024-02-26T13:03:43;1.35;;;1.00;;
20557;SDS011;10437;48.156;11.530;2024-02-26T13:06:10;6.25;;;1.02;;
20557;SDS011;10437;48.156;11.530;2024-02-26T13:08:38;3.70;;;1.20;;
20557;SDS011;10437;48.156;11.530;2024-02-26T13:11:05;1.95;;;1.00;;
20557;SDS011;10437;48.156;11.530;2024-02-26T13:13:34;2.08;;;1.00;;
20557;SDS011;10437;48.156;11.530;2024-02-26T13:16:02;1.55;;;0.85;;
20557;SDS011;10437;48.156;11.530;2024-02-26T13:18:29;1.27;;;0.88;;
20557;SDS011;10437;48.156;11.530;2024-02-26T13:21:06;5.45;;;1.15;;
20557;SDS011;10437;48.156;11.530;2024-02-26T13:23:34;2.05;;;0.90;;
20557;SDS011;10437;48.156;11.530;2024-02-26T13:26:02;1.65;;;0.90;;
20557;SDS011;10437;48.156;11.530;2024-02-26T13:28:29;1.45;;;0.75;;
20557;SDS011;10437;48.156;11.530;2024-02-26T13:30:57;2.13;;;1.10;;
20557;SDS011;10437;48.156;11.530;2024-02-26T13:33:26;4.03;;;1.38;;
20557;SDS011;10437;48.156;11.530;2024-02-26T13:35:54;1.50;;;0.80;;
20557;SDS011;10437;48.156;11.530;2024-02-26T13:38:21;1.90;;;0.90;;
20557;SDS011;10437;48.156;11.530;2024-02-26T13:40:49;2.92;;;0.70;;
20557;SDS011;10437;48.156;11.530;2024-02-26T13:43:16;3.80;;;0.70;;
20557;SDS011;10437;48.156;11.530;2024-02-26T13:45:43;1.75;;;0.60;;
20557;SDS011;10437;48.156;11.530;2024-02-26T13:48:12;1.55;;;0.70;;
20557;SDS011;10437;48.156;11.530;2024-02-26T13:50:39;1.10;;;0.75;;
20557;SDS011;10437;48.156;11.530;2024-02-26T13:53:08;2.25;;;0.50;;
20557;SDS011;10437;48.156;11.530;2024-02-26T13:55:36;0.50;;;0.30;;
20557;SDS011;10437;48.156;11.530;2024-02-26T13:58:03;1.05;;;0.52;;
20557;SDS011;10437;48.156;11.530;2024-02-26T14:00:31;1.50;;;0.65;;
20557;SDS011;10437;48.156;11.530;2024-02-26T14:02:58;0.77;;;0.55;;
20557;SDS011;10437;48.156;11.530;2024-02-26T14:05:27;1.15;;;0.77;;
20557;SDS011;10437;48.156;11.530;2024-02-26T14:07:55;1.52;;;0.60;;
20557;SDS011;10437;48.156;11.530;2024-02-26T14:10:23;0.85;;;0.47;;
20557;SDS011;10437;48.156;11.530;2024-02-26T14:12:51;1.17;;;0.60;;
20557;SDS011;10437;48.156;11.530;2024-02-26T14:15:18;0.90;;;0.60;;
20557;SDS011;10437;48.156;11.530;2024-02-26T14:17:45;1.15;;;0.50;;
20557;SDS011;10437;48.156;11.530;2024-02-26T14:20:18;1.77;;;0.70;;
20557;SDS011;10437;48.156;11.530;2024-02-26T14:22:46;1.23;;;0.60;;
20557;SDS011;10437;48.156;11.530;2024-02-26T14:25:14;1.33;;;0.65;;
20557;SDS011;10437;48.156;11.530;2024-02-26T14:27:41;3.58;;;1.13;;
20557;SDS011;10437;48.156;11.530;2024-02-26T14:30:08;2.30;;;0.80;;
20557;SDS011;10437;48.156;11.530;2024-02-26T14:32:35;1.75;;;1.15;;
20557;SDS011;10437;48.156;11.530;2024-02-26T14:35:04;1.05;;;0.70;;
20557;SDS011;10437;48.156;11.530;2024-02-26T14:37:31;5.10;;;1.00;;
20557;SDS011;10437;48.156;11.530;2024-02-26T14:40:00;2.85;;;0.98;;
20557;SDS011;10437;48.156;11.530;2024-02-26T14:42:28;1.40;;;0.90;;